Time;durP1;ratioP1;P1;durP2;ratioP2;P2;SDS_P1;SDS_P2;PMS_P1;PMS_P2;Temp;Humidity;BMP_temperature;BMP_pressure;BME280_temperature;BME280_humidity;BME280_pressure;Samples;Min_cycle;Max_cycle;Signal;HPM_P1;HPM_P2
2023/08/11 00:01:13;;;;;;;;;;;;;;;16.64;55.25;100911.88;5096251;28;1897;-48
2023/08/11 00:03:38;;;;;;;;;;;;;;;16.55;55.25;100905.25;5076738;28;1113;-50
2023/08/11 00:06:07;;;;;;;;;;;;;;;16.52;54.98;100906.63;5091232;28;1193;-52
2023/08/11 00:08:32;;;;;;;;;;;;;;;16.47;54.74;100895.63;5089143;28;920;-52
2023/08/11 00:10:58;;;;;;;;;;;;;;;16.40;54.93;100892.31;5077756;28;1086;-51
2023/08/11 00:13:24;;;;;;;;;;;;;;;16.40;54.39;100901.38;5089327;28;1137;-49
2023/08/11 00:15:49;;;;;;;;;;;;;;;16.41;54.38;100900.28;5076485;28;1027;-53
2023/08/11 00:18:15;;;;;;;;;;;;;;;16.36;54.41;100908.50;5085220;28;1150;-51
2023/08/11 00:20:41;;;;;;;;;;;;;;;16.34;54.28;100905.19;5082597;28;1906;-50
2023/08/11 00:23:07;;;;;;;;;;;;;;;16.28;54.53;100895.28;5089284;28;1039;-47
2023/08/11 00:25:32;;;;;;;;;;;;;;;16.79;55.33;100894.63;5090597;28;1121;-50
2023/08/11 00:27:58;;;;;;;;;;;;;;;17.46;55.72;100889.19;5096357;28;1146;-52
2023/08/11 00:30:24;;;;;;;;;;;;;;;16.91;56.32;100888.88;5064231;28;1205;-50
2023/08/11 00:32:50;;;;;;;;;;;;;;;16.73;56.04;100882.81;5076197;28;936;-50
2023/08/11 00:35:15;;;;;;;;;;;;;;;16.62;55.62;100886.63;5090023;28;1003;-49
2023/08/11 00:37:41;;;;;;;;;;;;;;;16.60;55.22;100880.56;5089391;28;1185;-51
2023/08/11 00:40:08;;;;;;;;;;;;;;;16.60;55.00;100888.81;5090740;28;1210;-50
2023/08/11 00:42:33;;;;;;;;;;;;;;;16.57;54.61;100875.63;5096437;28;1984;-52
2023/08/11 00:44:59;;;;;;;;;;;;;;;16.46;54.93;100884.94;5095506;28;1187;-51
2023/08/11 00:47:25;;;;;;;;;;;;;;;16.78;55.86;100884.72;5089096;28;1103;-49
2023/08/11 00:49:51;;;;;;;;;;;;;;;17.59;55.94;100868.53;5075750;28;1259;-49
2023/08/11 00:52:17;;;;;;;;;;;;;;;17.04;56.36;100885.63;5093100;28;1139;-49
2023/08/11 00:54:44;;;;;;;;;;;;;;;16.86;56.00;100888.88;5077353;28;1063;-46
2023/08/11 00:57:10;;;;;;;;;;;;;;;16.70;55.85;100888.00;5057284;28;1550;-52
2023/08/11 00:59:35;;;;;;;;;;;;;;;16.70;55.31;100891.56;5058278;28;1027;-48
2023/08/11 01:02:01;;;;;;;;;;;;;;;16.67;55.09;100894.03;5058499;28;1906;-49
2023/08/11 01:04:26;;;;;;;;;;;;;;;16.56;54.99;100898.66;5076923;28;1043;-51
2023/08/11 01:07:06;;;;;;;;;;;;;;;16.53;54.91;100901.97;5077737;28;1569;-50
2023/08/11 01:09:37;;;;;;;;;;;;;;;16.49;54.78;100895.34;5061006;28;1114;-48
2023/08/11 01:12:06;;;;;;;;;;;;;;;16.41;55.03;100893.94;5077841;28;1083;-49
2023/08/11 01:14:50;;;;;;;;;;;;;;;16.43;54.77;100897.25;5078844;28;1166;-49
2023/08/11 01:17:16;;;;;;;;;;;;;;;16.36;54.58;100892.03;5075829;28;1031;-49
2023/08/11 01:19:42;;;;;;;;;;;;;;;16.32;54.70;100888.16;5064556;28;1155;-48
2023/08/11 01:22:10;;;;;;;;;;;;;;;16.37;54.31;100898.34;5074078;28;1898;-51
2023/08/11 01:24:35;;;;;;;;;;;;;;;16.27;54.56;100887.31;5065150;28;1016;-49
2023/08/11 01:27:01;;;;;;;;;;;;;;;16.74;55.90;100897.34;5057215;28;1156;-49
2023/08/11 01:29:26;;;;;;;;;;;;;;;17.54;56.19;100887.78;5065000;28;1526;-47
2023/08/11 01:31:53;;;;;;;;;;;;;;;16.98;56.62;100897.69;5077752;28;1264;-48
2023/08/11 01:34:19;;;;;;;;;;;;;;;16.79;56.20;100888.28;5073666;28;1505;-50
2023/08/11 01:36:44;;;;;;;;;;;;;;;16.58;56.04;100885.50;5088829;28;1138;-45
2023/08/11 01:39:10;;;;;;;;;;;;;;;16.57;55.71;100886.59;5082275;28;1089;-52
2023/08/11 01:41:39;;;;;;;;;;;;;;;16.54;55.47;100900.88;5095801;28;1982;-46
2023/08/11 01:44:05;;;;;;;;;;;;;;;16.49;55.27;100889.88;5064509;28;1079;-48
2023/08/11 01:46:31;;;;;;;;;;;;;;;16.43;55.04;100898.09;5081760;28;853;-51
2023/08/11 01:48:56;;;;;;;;;;;;;;;16.37;55.07;100899.16;5064972;28;1142;-51
2023/08/11 01:51:25;;;;;;;;;;;;;;;16.40;54.65;100906.84;5068461;28;1242;-47
2023/08/11 01:53:51;;;;;;;;;;;;;;;16.37;54.81;100915.63;5074420;28;1110;-49
2023/08/11 01:56:17;;;;;;;;;;;;;;;17.31;56.51;100912.00;5077237;28;1212;-48
2023/08/11 01:58:42;;;;;;;;;;;;;;;17.28;56.32;100907.88;5057540;28;1533;-48
2023/08/11 02:01:08;;;;;;;;;;;;;;;16.91;56.46;100899.88;5057671;28;1974;-52
2023/08/11 02:03:33;;;;;;;;;;;;;;;16.74;56.12;100920.13;5082610;28;1111;-54
2023/08/11 02:05:59;;;;;;;;;;;;;;;16.71;55.62;100909.69;5082250;28;1014;-49
2023/08/11 02:08:25;;;;;;;;;;;;;;;16.56;55.43;100912.41;5076498;28;1197;-46
2023/08/11 02:10:52;;;;;;;;;;;;;;;16.55;55.19;100911.59;5079034;28;863;-49
2023/08/11 02:13:18;;;;;;;;;;;;;;;16.49;55.03;100920.88;5068232;28;1295;-49
2023/08/11 02:15:44;;;;;;;;;;;;;;;16.47;54.78;100925.00;5077830;28;1130;-50
2023/08/11 02:18:10;;;;;;;;;;;;;;;16.44;54.92;100923.63;5092296;28;1165;-50
2023/08/11 02:20:35;;;;;;;;;;;;;;;16.39;54.82;100923.59;5074314;28;1974;-51
2023/08/11 02:23:01;;;;;;;;;;;;;;;16.78;56.23;100931.41;5079025;28;1182;-51
2023/08/11 02:25:26;;;;;;;;;;;;;;;17.51;56.45;100921.31;5079244;28;1046;-50
2023/08/11 02:27:52;;;;;;;;;;;;;;;17.00;56.56;100920.22;5080650;28;1067;-51
2023/08/11 02:30:18;;;;;;;;;;;;;;;16.82;56.04;100920.72;5085464;28;1138;-51
2023/08/11 02:32:45;;;;;;;;;;;;;;;16.66;55.73;100926.16;5092025;28;1106;-53
2023/08/11 02:35:11;;;;;;;;;;;;;;;16.64;55.43;100919.28;5060858;28;1056;-50
2023/08/11 02:37:36;;;;;;;;;;;;;;;16.55;55.17;100925.31;5098906;28;995;-52
2023/08/11 02:40:03;;;;;;;;;;;;;;;16.49;55.06;100923.63;5066700;28;1296;-50
2023/08/11 02:42:29;;;;;;;;;;;;;;;16.47;55.06;100925.81;5091620;28;1901;-51
2023/08/11 02:44:54;;;;;;;;;;;;;;;16.37;54.97;100914.81;5078535;28;1117;-48
2023/08/11 02:47:20;;;;;;;;;;;;;;;16.37;54.88;100914.81;5067649;28;1413;-52
2023/08/11 02:49:45;;;;;;;;;;;;;;;16.33;54.70;100903.53;5084457;28;1078;-51
2023/08/11 02:52:12;;;;;;;;;;;;;;;17.26;56.57;100915.56;5091028;28;1123;-52
2023/08/11 02:54:37;;;;;;;;;;;;;;;17.27;56.65;100899.91;5091635;28;1114;-53
2023/08/11 02:57:03;;;;;;;;;;;;;;;16.89;56.51;100896.59;5097802;28;960;-48
2023/08/11 02:59:29;;;;;;;;;;;;;;;16.77;56.37;100905.88;5097920;28;1050;-51
2023/08/11 03:01:54;;;;;;;;;;;;;;;16.68;55.65;100912.97;5079916;28;1979;-51
2023/08/11 03:04:20;;;;;;;;;;;;;;;16.67;55.37;100903.09;5079934;28;1039;-50
2023/08/11 03:06:47;;;;;;;;;;;;;;;16.58;55.10;100916.53;5060077;28;1285;-51
2023/08/11 03:09:13;;;;;;;;;;;;;;;16.47;55.15;100908.53;5072933;28;1146;-49
2023/08/11 03:11:40;;;;;;;;;;;;;;;16.47;55.03;100908.53;5091546;28;1138;-49
2023/08/11 03:14:05;;;;;;;;;;;;;;;16.43;54.60;100914.53;5073165;28;1099;-48
2023/08/11 03:16:32;;;;;;;;;;;;;;;16.37;54.71;100910.16;5077635;28;1102;-51
2023/08/11 03:18:58;;;;;;;;;;;;;;;16.32;54.68;100912.84;5059390;28;1098;-48
2023/08/11 03:21:23;;;;;;;;;;;;;;;16.30;54.52;100911.47;5059746;28;1968;-51
2023/08/11 03:23:49;;;;;;;;;;;;;;;16.26;54.80;100919.44;5090956;28;1127;-50
2023/08/11 03:26:15;;;;;;;;;;;;;;;16.32;54.59;100923.84;5079729;28;1374;-49
2023/08/11 03:28:41;;;;;;;;;;;;;;;17.47;56.40;100921.03;5079964;28;1248;-49
2023/08/11 03:31:08;;;;;;;;;;;;;;;17.21;56.65;100923.81;5078794;28;1176;-49
2023/08/11 03:33:38;;;;;;;;;;;;;;;16.95;56.24;100920.19;5069866;28;1496;-48
2023/08/11 03:36:08;;;;;;;;;;;;;;;16.72;56.00;100927.81;5063479;28;1257;-50
2023/08/11 03:38:33;;;;;;;;;;;;;;;16.64;55.61;100931.09;5097143;28;1113;-50
2023/08/11 03:40:59;;;;;;;;;;;;;;;16.62;55.48;100935.19;5082296;28;1878;-52
2023/08/11 03:43:24;;;;;;;;;;;;;;;16.47;55.55;100934.06;5086543;28;1034;-48
2023/08/11 03:45:51;;;;;;;;;;;;;;;16.47;55.05;100936.00;5081304;28;994;-47
2023/08/11 03:48:17;;;;;;;;;;;;;;;16.46;54.93;100937.88;5079387;28;1174;-54
2023/08/11 03:50:42;;;;;;;;;;;;;;;16.41;54.81;100946.94;5083136;28;1279;-53
2023/08/11 03:53:08;;;;;;;;;;;;;;;16.33;54.82;100946.63;5096998;28;1042;-53
2023/08/11 03:55:34;;;;;;;;;;;;;;;17.13;56.45;100948.25;5079241;28;1363;-54
2023/08/11 03:58:01;;;;;;;;;;;;;;;17.12;56.71;100946.59;5073974;28;1237;-55
2023/08/11 04:00:28;;;;;;;;;;;;;;;16.82;56.50;100948.19;5069624;28;2612;-54
2023/08/11 04:03:09;;;;;;;;;;;;;;;16.71;55.86;100956.38;5066350;28;1967;-52
2023/08/11 04:05:35;;;;;;;;;;;;;;;16.60;55.95;100961.00;5078306;28;2209;-46
2023/08/11 04:08:01;;;;;;;;;;;;;;;16.53;55.56;100962.34;5095605;28;2228;-48
2023/08/11 04:10:26;;;;;;;;;;;;;;;16.50;55.36;100963.72;5077000;28;2340;-52
2023/08/11 04:12:52;;;;;;;;;;;;;;;16.46;55.03;100965.34;5096463;28;2113;-49
2023/08/11 04:15:18;;;;;;;;;;;;;;;16.39;54.84;100957.34;5096110;28;2030;-50
2023/08/11 04:17:43;;;;;;;;;;;;;;;16.35;54.99;100961.72;5096679;28;1130;-47
2023/08/11 04:20:12;;;;;;;;;;;;;;;16.33;54.98;100957.63;5096625;28;1023;-51
2023/08/11 04:22:39;;;;;;;;;;;;;;;16.31;54.70;100970.75;5077063;28;1909;-52
2023/08/11 04:25:05;;;;;;;;;;;;;;;16.28;54.66;100958.41;5078652;28;1338;-52
2023/08/11 04:27:31;;;;;;;;;;;;;;;16.81;56.17;100968.50;5077888;28;1094;-50
2023/08/11 04:29:57;;;;;;;;;;;;;;;17.41;56.64;100966.94;5078334;28;1126;-54
2023/08/11 04:32:24;;;;;;;;;;;;;;;16.88;56.72;100958.91;5077084;28;1254;-51
2023/08/11 04:34:49;;;;;;;;;;;;;;;16.71;56.48;100970.09;5077954;28;1580;-49
2023/08/11 04:37:17;;;;;;;;;;;;;;;16.61;55.88;100970.06;5077847;28;1111;-46
2023/08/11 04:39:42;;;;;;;;;;;;;;;16.53;55.80;100967.84;5096231;28;1153;-51
2023/08/11 04:42:08;;;;;;;;;;;;;;;16.48;55.41;100970.56;5078190;28;1962;-50
2023/08/11 04:44:34;;;;;;;;;;;;;;;16.48;55.10;100965.91;5096521;28;1788;-55
2023/08/11 04:47:00;;;;;;;;;;;;;;;16.91;56.68;100968.53;5077374;28;1233;-51
2023/08/11 04:49:25;;;;;;;;;;;;;;;17.06;55.47;100971.31;5077546;28;1221;-53
2023/08/11 04:51:51;;;;;;;;;;;;;;;16.62;53.61;100981.88;5076964;28;1397;-50
2023/08/11 04:54:17;;;;;;;;;;;;;;;17.30;55.31;100979.03;5077814;28;1301;-52
2023/08/11 04:56:43;;;;;;;;;;;;;;;16.90;53.84;100984.19;5096163;28;1169;-51
2023/08/11 04:59:09;;;;;;;;;;;;;;;16.71;52.00;100981.09;5076839;28;1294;-48
2023/08/11 05:01:34;;;;;;;;;;;;;;;17.78;54.06;100993.34;5096075;28;1913;-53
2023/08/11 05:04:00;;;;;;;;;;;;;;;17.30;53.80;100980.97;5095644;28;1090;-48
2023/08/11 05:06:25;;;;;;;;;;;;;;;16.96;52.47;100993.28;5092603;28;1035;-45
2023/08/11 05:08:51;;;;;;;;;;;;;;;16.88;51.04;100982.78;5095841;28;1174;-47
2023/08/11 05:11:16;;;;;;;;;;;;;;;16.92;49.74;100990.25;5095250;28;845;-50
2023/08/11 05:13:43;;;;;;;;;;;;;;;17.14;51.03;100982.84;5095155;28;2381;-47
2023/08/11 05:16:09;;;;;;;;;;;;;;;17.66;53.10;100989.25;5086651;28;1226;-46
2023/08/11 05:18:35;;;;;;;;;;;;;;;17.27;51.85;100976.84;5095948;28;1182;-50
2023/08/11 05:21:01;;;;;;;;;;;;;;;17.07;50.54;100983.97;5095571;28;1969;-47
2023/08/11 05:23:27;;;;;;;;;;;;;;;16.97;49.71;100980.34;5091877;28;1495;-44
2023/08/11 05:25:52;;;;;;;;;;;;;;;17.58;51.02;100976.84;5094695;28;1260;-47
2023/08/11 05:28:18;;;;;;;;;;;;;;;17.45;51.32;100972.75;5094456;28;1292;-47
2023/08/11 05:30:45;;;;;;;;;;;;;;;17.22;50.08;100971.34;5095574;28;1015;-48
2023/08/11 05:33:11;;;;;;;;;;;;;;;17.09;49.16;100973.50;5095544;28;1249;-47
2023/08/11 05:35:37;;;;;;;;;;;;;;;17.08;48.66;100973.78;5095003;28;840;-45
2023/08/11 05:38:03;;;;;;;;;;;;;;;17.03;48.17;100971.88;5073426;28;1327;-49
2023/08/11 05:40:29;;;;;;;;;;;;;;;17.00;47.83;100985.31;5085214;28;1079;-44
2023/08/11 05:42:54;;;;;;;;;;;;;;;18.11;50.37;100980.09;5096886;28;1977;-49
2023/08/11 05:45:20;;;;;;;;;;;;;;;17.51;50.15;100981.81;5088894;28;2319;-49
2023/08/11 05:47:45;;;;;;;;;;;;;;;17.33;49.49;100981.25;5099670;28;924;-46
2023/08/11 05:50:11;;;;;;;;;;;;;;;17.22;48.59;100988.66;5099259;28;1168;-47
2023/08/11 05:52:36;;;;;;;;;;;;;;;17.15;48.15;100979.84;5099215;28;1074;-50
2023/08/11 05:55:02;;;;;;;;;;;;;;;17.10;47.61;100986.16;5095834;28;1038;-46
2023/08/11 05:57:27;;;;;;;;;;;;;;;17.09;47.23;100989.19;5089912;28;1051;-46
2023/08/11 05:59:53;;;;;;;;;;;;;;;16.97;47.09;100989.44;5097406;28;1195;-47
2023/08/11 06:02:18;;;;;;;;;;;;;;;17.04;46.71;100984.50;5097976;28;1984;-45
2023/08/11 06:04:45;;;;;;;;;;;;;;;16.95;46.81;100986.13;5067875;28;1225;-47
2023/08/11 06:07:10;;;;;;;;;;;;;;;17.36;47.93;100990.88;5098885;28;1154;-48
2023/08/11 06:09:36;;;;;;;;;;;;;;;17.39;48.99;100988.41;5093807;28;975;-47
2023/08/11 06:12:01;;;;;;;;;;;;;;;17.26;48.26;100981.53;5092587;28;907;-47
2023/08/11 06:14:27;;;;;;;;;;;;;;;17.13;47.87;100987.53;5097133;28;1981;-47
2023/08/11 06:16:52;;;;;;;;;;;;;;;17.90;48.69;100992.25;5087315;28;1108;-48
2023/08/11 06:19:18;;;;;;;;;;;;;;;17.42;48.87;100996.09;5089392;28;1352;-46
2023/08/11 06:21:45;;;;;;;;;;;;;;;17.32;47.95;100996.09;5090543;28;1909;-46
2023/08/11 06:24:11;;;;;;;;;;;;;;;17.27;47.61;101001.59;5062226;28;1019;-49
2023/08/11 06:26:36;;;;;;;;;;;;;;;17.61;48.17;100992.78;5089174;28;1054;-45
2023/08/11 06:29:04;;;;;;;;;;;;;;;17.82;50.31;101003.78;5098133;28;1074;-47
2023/08/11 06:31:30;;;;;;;;;;;;;;;17.61;49.66;100996.38;5098472;28;1117;-46
2023/08/11 06:33:55;;;;;;;;;;;;;;;17.47;48.72;100997.19;5098203;28;1085;-49
2023/08/11 06:36:21;;;;;;;;;;;;;;;17.34;48.11;100993.06;5097311;28;876;-49
2023/08/11 06:38:47;;;;;;;;;;;;;;;17.34;47.34;100996.63;5083805;28;1130;-44
2023/08/11 06:41:13;;;;;;;;;;;;;;;17.22;47.53;100990.56;5092334;28;1968;-50
2023/08/11 06:43:38;;;;;;;;;;;;;;;18.02;48.74;100998.31;5087148;28;1106;-48
2023/08/11 06:46:04;;;;;;;;;;;;;;;17.50;48.92;100991.16;5081675;28;998;-47
2023/08/11 06:48:29;;;;;;;;;;;;;;;17.42;47.99;100995.28;5088237;28;984;-44
2023/08/11 06:50:58;;;;;;;;;;;;;;;17.32;47.67;100993.34;5090833;28;1190;-49
2023/08/11 06:53:24;;;;;;;;;;;;;;;17.27;47.24;100983.16;5087168;28;1311;-49
2023/08/11 06:55:51;;;;;;;;;;;;;;;17.28;46.97;100982.06;5086459;28;1255;-48
2023/08/11 06:58:16;;;;;;;;;;;;;;;17.19;46.99;100983.69;5086991;28;1666;-50
2023/08/11 07:00:42;;;;;;;;;;;;;;;17.24;46.60;100991.13;5083228;28;1906;-48
2023/08/11 07:03:08;;;;;;;;;;;;;;;18.11;48.03;100987.56;5096702;28;1116;-45
2023/08/11 07:05:33;;;;;;;;;;;;;;;17.76;48.96;100992.78;5086031;28;1366;-47
2023/08/11 07:07:59;;;;;;;;;;;;;;;17.51;48.61;100987.31;5098123;28;1152;-46
2023/08/11 07:10:24;;;;;;;;;;;;;;;17.44;47.82;100976.56;5096080;28;1237;-45
2023/08/11 07:12:50;;;;;;;;;;;;;;;17.35;47.63;100984.56;5090467;28;1236;-48
2023/08/11 07:15:15;;;;;;;;;;;;;;;17.24;47.26;100989.22;5076776;28;2422;-49
2023/08/11 07:17:41;;;;;;;;;;;;;;;17.30;46.89;100980.97;5097465;28;1174;-50
2023/08/11 07:20:06;;;;;;;;;;;;;;;17.27;46.56;100987.84;5097113;28;1229;-50
2023/08/11 07:22:32;;;;;;;;;;;;;;;17.24;46.56;100991.13;5090834;28;1978;-45
2023/08/11 07:24:57;;;;;;;;;;;;;;;17.20;46.64;100981.78;5093044;28;1155;-46
2023/08/11 07:27:23;;;;;;;;;;;;;;;17.24;46.67;100986.47;5079577;28;1115;-46
2023/08/11 07:29:48;;;;;;;;;;;;;;;18.04;48.39;100985.09;5097621;28;1099;-49
2023/08/11 07:32:14;;;;;;;;;;;;;;;17.57;48.41;100992.53;5097339;28;1256;-47
2023/08/11 07:34:40;;;;;;;;;;;;;;;17.42;48.13;101001.59;5069608;28;1036;-44
2023/08/11 07:37:06;;;;;;;;;;;;;;;17.35;47.76;100998.28;5095951;28;1245;-43
2023/08/11 07:39:32;;;;;;;;;;;;;;;17.40;46.95;100992.81;5096736;28;1226;-49
2023/08/11 07:42:02;;;;;;;;;;;;;;;17.33;46.71;100996.91;5096832;28;1941;-46
2023/08/11 07:44:31;;;;;;;;;;;;;;;17.30;46.59;100998.28;5094096;28;1953;-44
2023/08/11 07:46:57;;;;;;;;;;;;;;;17.27;46.38;100993.34;5083727;28;1066;-43
2023/08/11 07:49:24;;;;;;;;;;;;;;;17.26;46.48;101009.00;5095832;28;1134;-44
2023/08/11 07:51:49;;;;;;;;;;;;;;;17.31;46.25;100994.44;5097011;28;1077;-43
2023/08/11 07:54:16;;;;;;;;;;;;;;;17.21;46.44;101006.25;5097280;28;1520;-43
2023/08/11 07:56:43;;;;;;;;;;;;;;;17.22;46.17;101005.16;5096826;28;1121;-43
2023/08/11 07:59:08;;;;;;;;;;;;;;;18.08;47.85;101010.13;5096078;28;1363;-45
2023/08/11 08:01:35;;;;;;;;;;;;;;;17.55;48.17;100999.41;5096781;28;1976;-48
2023/08/11 08:04:01;;;;;;;;;;;;;;;17.47;47.61;100997.19;5096958;28;1496;-49
2023/08/11 08:06:26;;;;;;;;;;;;;;;17.38;47.29;100997.75;5095952;28;1145;-48
2023/08/11 08:08:52;;;;;;;;;;;;;;;17.31;47.20;101005.44;5097231;28;1405;-44
2023/08/11 08:11:18;;;;;;;;;;;;;;;17.41;46.56;100999.94;5097073;28;1303;-42
2023/08/11 08:13:43;;;;;;;;;;;;;;;17.37;46.48;100996.09;5095634;28;2363;-46
2023/08/11 08:16:09;;;;;;;;;;;;;;;17.24;46.72;100985.66;5091114;28;1225;-50
2023/08/11 08:18:34;;;;;;;;;;;;;;;17.36;46.12;100980.72;5094497;28;1285;-48
2023/08/11 08:21:00;;;;;;;;;;;;;;;17.31;46.25;100977.94;5094223;28;1910;-46
2023/08/11 08:23:25;;;;;;;;;;;;;;;17.24;46.31;100980.97;5096605;28;1182;-48
2023/08/11 08:25:51;;;;;;;;;;;;;;;17.28;46.08;100989.50;5090383;28;1385;-47
2023/08/11 08:28:16;;;;;;;;;;;;;;;17.28;46.13;100981.25;5096630;28;1437;-46
2023/08/11 08:30:42;;;;;;;;;;;;;;;17.28;46.03;100981.25;5096353;28;1023;-47
2023/08/11 08:33:07;;;;;;;;;;;;;;;17.20;46.19;100984.53;5076303;28;1035;-51
2023/08/11 08:35:33;;;;;;;;;;;;;;;17.15;46.21;100990.00;5094356;28;1285;-49
2023/08/11 08:37:59;;;;;;;;;;;;;;;17.99;47.87;100976.81;5094954;28;1205;-47
2023/08/11 08:40:25;;;;;;;;;;;;;;;17.56;48.18;100984.56;5094777;28;953;-43
2023/08/11 08:42:50;;;;;;;;;;;;;;;17.51;47.54;100992.81;5077655;28;1992;-50
2023/08/11 08:45:16;;;;;;;;;;;;;;;17.41;47.55;100977.13;5095192;28;2381;-47
2023/08/11 08:47:41;;;;;;;;;;;;;;;17.35;47.17;100992.81;5077188;28;1063;-48
2023/08/11 08:50:07;;;;;;;;;;;;;;;17.36;46.83;100991.72;5095728;28;1129;-46
2023/08/11 08:52:33;;;;;;;;;;;;;;;17.39;46.61;100995.81;5076905;28;1307;-46
2023/08/11 08:55:00;;;;;;;;;;;;;;;17.35;46.69;100992.81;5089140;28;1066;-49
2023/08/11 08:57:25;;;;;;;;;;;;;;;17.35;46.47;100994.69;5096269;28;1182;-49
2023/08/11 08:59:51;;;;;;;;;;;;;;;17.24;46.57;101000.19;5094964;28;1062;-47
2023/08/11 09:02:16;;;;;;;;;;;;;;;17.29;46.38;100993.88;5095976;28;1897;-47
2023/08/11 09:04:42;;;;;;;;;;;;;;;17.24;46.64;101000.19;5095698;28;1061;-47
2023/08/11 09:07:07;;;;;;;;;;;;;;;17.26;46.36;100991.69;5095741;28;1022;-48
2023/08/11 09:09:33;;;;;;;;;;;;;;;17.22;46.39;100998.81;5077914;28;1126;-47
2023/08/11 09:11:59;;;;;;;;;;;;;;;17.22;46.48;100990.56;5095331;28;1080;-50
2023/08/11 09:14:24;;;;;;;;;;;;;;;17.20;46.46;100998.28;5092114;28;2289;-47
2023/08/11 09:16:52;;;;;;;;;;;;;;;17.21;46.42;101006.25;5095641;28;1070;-44
2023/08/11 09:19:17;;;;;;;;;;;;;;;17.20;46.40;101012.84;5095241;28;1035;-44
2023/08/11 09:21:43;;;;;;;;;;;;;;;17.27;46.47;100999.66;5095967;28;1902;-47
2023/08/11 09:24:12;;;;;;;;;;;;;;;17.23;46.40;101011.47;5095316;28;1653;-46
2023/08/11 09:26:38;;;;;;;;;;;;;;;17.20;46.46;101012.03;5095866;28;995;-45
2023/08/11 09:29:04;;;;;;;;;;;;;;;17.22;46.50;101012.56;5095808;28;1042;-45
2023/08/11 09:31:29;;;;;;;;;;;;;;;17.26;46.35;101014.50;5096069;28;999;-48
2023/08/11 09:33:55;;;;;;;;;;;;;;;17.23;46.26;101011.47;5077408;28;1038;-50
2023/08/11 09:36:20;;;;;;;;;;;;;;;17.27;46.22;101004.34;5095579;28;1003;-47
2023/08/11 09:38:46;;;;;;;;;;;;;;;17.16;46.39;101013.66;5095452;28;1050;-48
2023/08/11 09:41:12;;;;;;;;;;;;;;;18.03;47.17;101013.69;5091658;28;1976;-44
2023/08/11 09:43:38;;;;;;;;;;;;;;;17.60;47.58;101021.41;5095657;28;1034;-48
2023/08/11 09:46:03;;;;;;;;;;;;;;;17.51;47.37;101012.88;5095850;28;2322;-49
2023/08/11 09:48:29;;;;;;;;;;;;;;;17.43;47.01;101021.66;5095195;28;1157;-47
2023/08/11 09:50:56;;;;;;;;;;;;;;;17.38;47.08;101027.16;5087714;28;1233;-46
2023/08/11 09:53:22;;;;;;;;;;;;;;;17.40;46.66;101017.56;5073267;28;1240;-48
2023/08/11 09:55:50;;;;;;;;;;;;;;;17.40;46.72;101022.22;5095001;28;1410;-48
2023/08/11 09:58:17;;;;;;;;;;;;;;;17.35;46.45;101017.53;5077492;28;1194;-50
2023/08/11 10:00:43;;;;;;;;;;;;;;;17.36;46.54;101013.69;5090877;28;1970;-48
2023/08/11 10:03:12;;;;;;;;;;;;;;;17.43;46.38;101016.16;5091386;28;1347;-47
2023/08/11 10:05:41;;;;;;;;;;;;;;;17.39;46.38;101026.88;5063208;28;1223;-46
2023/08/11 10:08:09;;;;;;;;;;;;;;;17.39;46.18;101026.03;5088330;28;1089;-49
2023/08/11 10:10:34;;;;;;;;;;;;;;;17.37;46.09;101020.81;5077592;28;1398;-52
2023/08/11 10:13:05;;;;;;;;;;;;;;;17.38;46.11;101025.22;5077036;28;1374;-47
2023/08/11 10:15:31;;;;;;;;;;;;;;;17.28;46.38;101027.97;5067655;28;2467;-49
2023/08/11 10:17:56;;;;;;;;;;;;;;;17.29;46.08;101029.59;5066699;28;1219;-47
2023/08/11 10:20:22;;;;;;;;;;;;;;;17.34;46.07;101024.13;5092941;28;1406;-45
2023/08/11 10:22:48;;;;;;;;;;;;;;;17.26;46.29;101020.00;5081732;28;1914;-48
2023/08/11 10:25:14;;;;;;;;;;;;;;;17.31;46.32;101024.69;5086873;28;1397;-48
2023/08/11 10:27:39;;;;;;;;;;;;;;;17.36;46.09;101024.69;5095513;28;1390;-53
2023/08/11 10:30:05;;;;;;;;;;;;;;;17.24;46.15;101027.69;5097179;28;1382;-48
2023/08/11 10:32:34;;;;;;;;;;;;;;;17.24;46.56;101032.38;5099212;28;1322;-51
2023/08/11 10:34:59;;;;;;;;;;;;;;;17.33;46.33;101029.91;5098644;28;1311;-46
2023/08/11 10:37:29;;;;;;;;;;;;;;;17.30;46.26;101014.78;5095858;28;1445;-47
2023/08/11 10:40:05;;;;;;;;;;;;;;;17.29;46.29;101021.34;5098977;28;1347;-49
2023/08/11 10:42:30;;;;;;;;;;;;;;;17.30;46.26;101020.28;5086919;28;1917;-47
2023/08/11 10:45:06;;;;;;;;;;;;;;;17.24;46.43;101016.69;5080214;28;2180;-46
2023/08/11 10:47:32;;;;;;;;;;;;;;;17.36;46.04;101018.34;5098506;28;1145;-48
2023/08/11 10:49:57;;;;;;;;;;;;;;;17.34;46.18;101026.06;5097805;28;1187;-48
2023/08/11 10:52:23;;;;;;;;;;;;;;;17.28;45.99;101027.97;5098476;28;1145;-48
2023/08/11 10:54:49;;;;;;;;;;;;;;;17.28;46.19;101023.28;5098333;28;1134;-48
2023/08/11 10:57:14;;;;;;;;;;;;;;;17.33;46.14;101027.97;5098496;28;1062;-50
2023/08/11 10:59:40;;;;;;;;;;;;;;;17.35;46.06;101022.19;5077146;28;1190;-48
2023/08/11 11:02:05;;;;;;;;;;;;;;;17.28;46.11;101017.78;5097156;28;1982;-49
2023/08/11 11:04:31;;;;;;;;;;;;;;;17.26;45.99;101014.50;5098510;28;1162;-47
2023/08/11 11:06:57;;;;;;;;;;;;;;;17.31;46.06;101023.88;5098319;28;1113;-50
2023/08/11 11:09:23;;;;;;;;;;;;;;;17.32;46.02;101012.59;5098169;28;1025;-50
2023/08/11 11:11:51;;;;;;;;;;;;;;;18.11;47.19;101012.31;5097998;28;1133;-51
2023/08/11 11:14:16;;;;;;;;;;;;;;;17.67;47.41;101005.47;5084808;28;2372;-50
2023/08/11 11:16:42;;;;;;;;;;;;;;;17.58;47.25;101004.34;5098670;28;1209;-49
2023/08/11 11:19:08;;;;;;;;;;;;;;;17.48;46.90;101012.59;5079538;28;1189;-50
2023/08/11 11:21:34;;;;;;;;;;;;;;;17.49;46.91;101008.75;5097802;28;1905;-50
2023/08/11 11:23:59;;;;;;;;;;;;;;;17.39;46.92;101004.91;5097827;28;1181;-47
2023/08/11 11:26:31;;;;;;;;;;;;;;;17.46;46.61;101012.88;5092470;28;1222;-46
2023/08/11 11:28:57;;;;;;;;;;;;;;;17.53;46.12;101013.44;5097257;28;1097;-48
2023/08/11 11:31:23;;;;;;;;;;;;;;;17.43;46.48;101003.25;5094027;28;1037;-49
2023/08/11 11:33:49;;;;;;;;;;;;;;;17.40;46.34;101008.47;5097168;28;1218;-48
2023/08/11 11:36:15;;;;;;;;;;;;;;;17.43;46.33;101002.41;5097808;28;1344;-44
2023/08/11 11:38:41;;;;;;;;;;;;;;;17.33;46.41;101005.97;5097445;28;940;-48
2023/08/11 11:41:10;;;;;;;;;;;;;;;17.36;46.22;100991.72;5096680;28;1982;-47
2023/08/11 11:43:36;;;;;;;;;;;;;;;17.39;46.33;101006.81;5097506;28;1224;-49
2023/08/11 11:46:01;;;;;;;;;;;;;;;17.38;46.08;101002.44;5097372;28;2590;-45
2023/08/11 11:48:27;;;;;;;;;;;;;;;17.37;46.19;101001.59;5079166;28;1398;-50
2023/08/11 11:50:52;;;;;;;;;;;;;;;17.44;45.91;101012.31;5096234;28;1319;-48
2023/08/11 11:53:20;;;;;;;;;;;;;;;17.44;45.79;101002.13;5089961;28;1281;-46
2023/08/11 11:55:46;;;;;;;;;;;;;;;17.33;46.22;101014.22;5096362;28;1265;-50
2023/08/11 11:58:13;;;;;;;;;;;;;;;17.33;46.00;101007.91;5096278;28;1078;-49
2023/08/11 12:00:39;;;;;;;;;;;;;;;17.40;46.04;101017.56;5095571;28;1217;-46
2023/08/11 12:03:04;;;;;;;;;;;;;;;17.31;46.09;101008.19;5091708;28;1980;-46
2023/08/11 12:05:30;;;;;;;;;;;;;;;17.43;45.89;101013.41;5097342;28;1260;-52
2023/08/11 12:07:55;;;;;;;;;;;;;;;17.40;45.97;100995.56;5095031;28;1251;-49
2023/08/11 12:10:30;;;;;;;;;;;;;;;17.36;46.11;100997.22;5096047;28;1370;-49
2023/08/11 12:12:59;;;;;;;;;;;;;;;17.31;46.12;101002.69;5095285;28;1196;-47
2023/08/11 12:15:24;;;;;;;;;;;;;;;17.35;46.09;101001.03;5082827;28;2346;-49
2023/08/11 12:17:50;;;;;;;;;;;;;;;17.45;45.97;100995.53;5096609;28;1486;-45
2023/08/11 12:20:15;;;;;;;;;;;;;;;17.41;45.94;100988.94;5096729;28;1358;-48
2023/08/11 12:22:42;;;;;;;;;;;;;;;17.31;46.15;100988.94;5096285;28;1905;-50
2023/08/11 12:25:08;;;;;;;;;;;;;;;17.36;45.86;101001.84;5096152;28;1397;-50
2023/08/11 12:27:35;;;;;;;;;;;;;;;17.39;45.78;100993.91;5086525;28;948;-49
2023/08/11 12:30:01;;;;;;;;;;;;;;;17.34;46.05;100999.38;5096031;28;1142;-46
2023/08/11 12:32:26;;;;;;;;;;;;;;;17.44;45.69;100987.56;5095627;28;1027;-47
2023/08/11 12:34:52;;;;;;;;;;;;;;;17.37;46.00;100990.59;5090238;28;1221;-50
2023/08/11 12:37:17;;;;;;;;;;;;;;;17.40;45.72;101006.56;5092514;28;1300;-50
2023/08/11 12:39:42;;;;;;;;;;;;;;;17.39;46.03;100999.41;5093537;28;1024;-48
2023/08/11 12:42:09;;;;;;;;;;;;;;;17.35;45.88;101005.69;5094103;28;1905;-45